sensor_id;sensor_type;location;lat;lon;timestamp;P1;durP1;ratioP1;P2;durP2;ratioP2
14892;SDS011;7538;53.626;9.906;2023-02-03T00:02:13;10.57;;;7.63;;
14892;SDS011;7538;53.626;9.906;2023-02-03T00:04:40;16.13;;;9.17;;
14892;SDS011;7538;53.626;9.906;2023-02-03T00:07:07;12.27;;;8.20;;
14892;SDS011;7538;53.626;9.906;2023-02-03T00:09:35;11.53;;;7.73;;
14892;SDS011;7538;53.626;9.906;2023-02-03T00:12:01;14.03;;;8.10;;
14892;SDS011;7538;53.626;9.906;2023-02-03T00:14:29;10.60;;;8.27;;
14892;SDS011;7538;53.626;9.906;2023-02-03T00:16:59;13.23;;;8.83;;
14892;SDS011;7538;53.626;9.906;2023-02-03T00:19:25;12.73;;;9.17;;
14892;SDS011;7538;53.626;9.906;2023-02-03T00:21:52;12.70;;;8.63;;
14892;SDS011;7538;53.626;9.906;2023-02-03T00:24:19;12.13;;;8.53;;
14892;SDS011;7538;53.626;9.906;2023-02-03T00:26:47;12.70;;;9.10;;
14892;SDS011;7538;53.626;9.906;2023-02-03T00:29:14;11.63;;;8.63;;
14892;SDS011;7538;53.626;9.906;2023-02-03T00:31:42;15.43;;;9.10;;
14892;SDS011;7538;53.626;9.906;2023-02-03T00:34:10;13.70;;;8.77;;
14892;SDS011;7538;53.626;9.906;2023-02-03T00:36:37;12.77;;;8.33;;
14892;SDS011;7538;53.626;9.906;2023-02-03T00:39:04;13.27;;;8.67;;
14892;SDS011;7538;53.626;9.906;2023-02-03T00:41:31;12.57;;;8.93;;
14892;SDS011;7538;53.626;9.906;2023-02-03T00:43:57;13.03;;;9.07;;
14892;SDS011;7538;53.626;9.906;2023-02-03T00:46:24;14.07;;;9.23;;
14892;SDS011;7538;53.626;9.906;2023-02-03T00:48:51;14.73;;;9.97;;
14892;SDS011;7538;53.626;9.906;2023-02-03T00:51:19;14.60;;;8.67;;
14892;SDS011;7538;53.626;9.906;2023-02-03T00:53:46;15.13;;;10.17;;
14892;SDS011;7538;53.626;9.906;2023-02-03T00:56:13;13.07;;;9.67;;
14892;SDS011;7538;53.626;9.906;2023-02-03T00:58:40;16.80;;;10.30;;
14892;SDS011;7538;53.626;9.906;2023-02-03T01:01:07;17.90;;;9.97;;
14892;SDS011;7538;53.626;9.906;2023-02-03T01:03:34;16.97;;;10.67;;
14892;SDS011;7538;53.626;9.906;2023-02-03T01:06:07;23.60;;;11.23;;
14892;SDS011;7538;53.626;9.906;2023-02-03T01:08:37;23.27;;;11.17;;
14892;SDS011;7538;53.626;9.906;2023-02-03T01:11:04;16.63;;;11.13;;
14892;SDS011;7538;53.626;9.906;2023-02-03T01:13:32;21.23;;;11.50;;
14892;SDS011;7538;53.626;9.906;2023-02-03T01:15:59;22.53;;;10.87;;
14892;SDS011;7538;53.626;9.906;2023-02-03T01:18:26;17.80;;;10.47;;
14892;SDS011;7538;53.626;9.906;2023-02-03T01:20:52;21.83;;;12.27;;
14892;SDS011;7538;53.626;9.906;2023-02-03T01:23:19;20.77;;;11.93;;
14892;SDS011;7538;53.626;9.906;2023-02-03T01:25:47;21.40;;;11.30;;
14892;SDS011;7538;53.626;9.906;2023-02-03T01:28:14;18.90;;;11.87;;
14892;SDS011;7538;53.626;9.906;2023-02-03T01:30:41;17.98;;;10.60;;
14892;SDS011;7538;53.626;9.906;2023-02-03T01:33:08;24.13;;;11.57;;
14892;SDS011;7538;53.626;9.906;2023-02-03T01:35:34;19.00;;;10.53;;
14892;SDS011;7538;53.626;9.906;2023-02-03T01:38:01;17.70;;;10.27;;
14892;SDS011;7538;53.626;9.906;2023-02-03T01:40:28;22.70;;;10.83;;
14892;SDS011;7538;53.626;9.906;2023-02-03T01:42:56;18.00;;;10.57;;
14892;SDS011;7538;53.626;9.906;2023-02-03T01:45:23;20.50;;;9.57;;
14892;SDS011;7538;53.626;9.906;2023-02-03T01:47:51;18.83;;;9.87;;
14892;SDS011;7538;53.626;9.906;2023-02-03T01:50:22;13.90;;;9.43;;
14892;SDS011;7538;53.626;9.906;2023-02-03T01:52:54;12.77;;;8.53;;
14892;SDS011;7538;53.626;9.906;2023-02-03T01:55:24;17.57;;;8.17;;
14892;SDS011;7538;53.626;9.906;2023-02-03T01:57:55;16.77;;;7.90;;
14892;SDS011;7538;53.626;9.906;2023-02-03T02:00:28;18.17;;;8.77;;
14892;SDS011;7538;53.626;9.906;2023-02-03T02:02:55;13.97;;;7.03;;
14892;SDS011;7538;53.626;9.906;2023-02-03T02:05:26;12.13;;;7.20;;
14892;SDS011;7538;53.626;9.906;2023-02-03T02:07:56;16.17;;;7.60;;
14892;SDS011;7538;53.626;9.906;2023-02-03T02:10:24;13.53;;;7.63;;
14892;SDS011;7538;53.626;9.906;2023-02-03T02:12:53;15.47;;;7.40;;
14892;SDS011;7538;53.626;9.906;2023-02-03T02:15:22;14.33;;;8.00;;
14892;SDS011;7538;53.626;9.906;2023-02-03T02:18:06;9.17;;;6.60;;
14892;SDS011;7538;53.626;9.906;2023-02-03T02:21:00;17.07;;;8.10;;
14892;SDS011;7538;53.626;9.906;2023-02-03T02:23:54;14.93;;;7.17;;
14892;SDS011;7538;53.626;9.906;2023-02-03T02:32:35;12.90;;;7.47;;
14892;SDS011;7538;53.626;9.906;2023-02-03T02:35:14;13.67;;;6.90;;
14892;SDS011;7538;53.626;9.906;2023-02-03T02:37:48;10.40;;;6.33;;
14892;SDS011;7538;53.626;9.906;2023-02-03T02:40:20;11.73;;;7.60;;
14892;SDS011;7538;53.626;9.906;2023-02-03T02:42:55;11.10;;;6.70;;
14892;SDS011;7538;53.626;9.906;2023-02-03T02:45:28;15.37;;;6.50;;
14892;SDS011;7538;53.626;9.906;2023-02-03T02:48:00;9.87;;;6.10;;
14892;SDS011;7538;53.626;9.906;2023-02-03T02:50:33;13.00;;;6.97;;
14892;SDS011;7538;53.626;9.906;2023-02-03T02:53:05;21.23;;;6.50;;
14892;SDS011;7538;53.626;9.906;2023-02-03T02:55:34;13.17;;;6.50;;
14892;SDS011;7538;53.626;9.906;2023-02-03T02:58:05;12.10;;;5.80;;
14892;SDS011;7538;53.626;9.906;2023-02-03T03:00:35;12.87;;;6.13;;
14892;SDS011;7538;53.626;9.906;2023-02-03T03:03:13;13.03;;;5.93;;
14892;SDS011;7538;53.626;9.906;2023-02-03T03:05:42;10.90;;;5.33;;
14892;SDS011;7538;53.626;9.906;2023-02-03T03:08:12;10.97;;;5.93;;
14892;SDS011;7538;53.626;9.906;2023-02-03T03:10:41;9.77;;;5.57;;
14892;SDS011;7538;53.626;9.906;2023-02-03T03:13:11;17.10;;;5.10;;
14892;SDS011;7538;53.626;9.906;2023-02-03T03:15:41;12.30;;;5.07;;
14892;SDS011;7538;53.626;9.906;2023-02-03T03:18:11;11.23;;;4.70;;
14892;SDS011;7538;53.626;9.906;2023-02-03T03:20:43;11.37;;;4.80;;
14892;SDS011;7538;53.626;9.906;2023-02-03T03:23:13;12.23;;;4.50;;
14892;SDS011;7538;53.626;9.906;2023-02-03T03:25:45;8.87;;;4.40;;
14892;SDS011;7538;53.626;9.906;2023-02-03T03:28:19;12.97;;;4.20;;
14892;SDS011;7538;53.626;9.906;2023-02-03T03:30:50;12.20;;;4.20;;
14892;SDS011;7538;53.626;9.906;2023-02-03T03:33:19;8.03;;;3.73;;
14892;SDS011;7538;53.626;9.906;2023-02-03T03:35:51;7.70;;;3.50;;
14892;SDS011;7538;53.626;9.906;2023-02-03T03:38:22;8.53;;;3.53;;
14892;SDS011;7538;53.626;9.906;2023-02-03T03:40:58;7.80;;;3.33;;
14892;SDS011;7538;53.626;9.906;2023-02-03T03:43:28;9.83;;;3.17;;
14892;SDS011;7538;53.626;9.906;2023-02-03T03:45:59;8.23;;;3.27;;
14892;SDS011;7538;53.626;9.906;2023-02-03T03:48:33;10.83;;;3.70;;
14892;SDS011;7538;53.626;9.906;2023-02-03T03:51:07;9.90;;;3.47;;
14892;SDS011;7538;53.626;9.906;2023-02-03T03:53:38;8.30;;;3.73;;
14892;SDS011;7538;53.626;9.906;2023-02-03T03:56:08;8.43;;;3.60;;
14892;SDS011;7538;53.626;9.906;2023-02-03T03:58:41;13.00;;;3.80;;
14892;SDS011;7538;53.626;9.906;2023-02-03T04:01:10;10.10;;;4.30;;
14892;SDS011;7538;53.626;9.906;2023-02-03T04:03:42;10.20;;;3.43;;
14892;SDS011;7538;53.626;9.906;2023-02-03T04:06:11;9.77;;;3.77;;
14892;SDS011;7538;53.626;9.906;2023-02-03T04:08:38;7.33;;;3.77;;
14892;SDS011;7538;53.626;9.906;2023-02-03T04:11:05;7.57;;;3.30;;
14892;SDS011;7538;53.626;9.906;2023-02-03T04:13:32;10.15;;;3.53;;
14892;SDS011;7538;53.626;9.906;2023-02-03T04:15:59;11.43;;;4.50;;
14892;SDS011;7538;53.626;9.906;2023-02-03T04:18:26;10.90;;;4.70;;
14892;SDS011;7538;53.626;9.906;2023-02-03T04:20:54;10.27;;;4.60;;
14892;SDS011;7538;53.626;9.906;2023-02-03T04:23:21;10.43;;;5.33;;
14892;SDS011;7538;53.626;9.906;2023-02-03T04:25:48;11.13;;;4.67;;
14892;SDS011;7538;53.626;9.906;2023-02-03T04:28:14;8.30;;;4.10;;
14892;SDS011;7538;53.626;9.906;2023-02-03T04:30:41;10.70;;;4.70;;
14892;SDS011;7538;53.626;9.906;2023-02-03T04:33:08;10.00;;;4.30;;
14892;SDS011;7538;53.626;9.906;2023-02-03T04:35:35;10.77;;;4.60;;
14892;SDS011;7538;53.626;9.906;2023-02-03T04:38:03;7.47;;;4.47;;
14892;SDS011;7538;53.626;9.906;2023-02-03T04:40:29;7.47;;;5.10;;
14892;SDS011;7538;53.626;9.906;2023-02-03T04:42:56;8.17;;;4.73;;
14892;SDS011;7538;53.626;9.906;2023-02-03T04:45:23;5.37;;;4.23;;
14892;SDS011;7538;53.626;9.906;2023-02-03T04:47:50;11.63;;;5.23;;
14892;SDS011;7538;53.626;9.906;2023-02-03T04:50:18;10.03;;;6.27;;
14892;SDS011;7538;53.626;9.906;2023-02-03T04:52:45;9.57;;;5.95;;
14892;SDS011;7538;53.626;9.906;2023-02-03T04:55:13;11.93;;;5.20;;
14892;SDS011;7538;53.626;9.906;2023-02-03T04:57:40;8.40;;;5.57;;
14892;SDS011;7538;53.626;9.906;2023-02-03T05:00:07;10.27;;;5.53;;
14892;SDS011;7538;53.626;9.906;2023-02-03T05:02:35;17.20;;;5.53;;
14892;SDS011;7538;53.626;9.906;2023-02-03T05:05:01;8.53;;;5.30;;
14892;SDS011;7538;53.626;9.906;2023-02-03T05:07:28;7.67;;;5.23;;
14892;SDS011;7538;53.626;9.906;2023-02-03T05:09:55;10.93;;;4.93;;
14892;SDS011;7538;53.626;9.906;2023-02-03T05:12:23;9.17;;;5.20;;
14892;SDS011;7538;53.626;9.906;2023-02-03T05:14:50;9.37;;;5.40;;
14892;SDS011;7538;53.626;9.906;2023-02-03T05:17:17;12.10;;;6.07;;
14892;SDS011;7538;53.626;9.906;2023-02-03T05:19:43;11.80;;;5.73;;
14892;SDS011;7538;53.626;9.906;2023-02-03T05:22:10;8.27;;;4.68;;
14892;SDS011;7538;53.626;9.906;2023-02-03T05:24:37;12.77;;;6.23;;
14892;SDS011;7538;53.626;9.906;2023-02-03T05:27:04;12.87;;;6.30;;
14892;SDS011;7538;53.626;9.906;2023-02-03T05:29:32;9.33;;;5.53;;
14892;SDS011;7538;53.626;9.906;2023-02-03T05:31:59;10.50;;;6.47;;
14892;SDS011;7538;53.626;9.906;2023-02-03T05:34:26;8.60;;;5.57;;
14892;SDS011;7538;53.626;9.906;2023-02-03T05:36:52;10.63;;;5.87;;
14892;SDS011;7538;53.626;9.906;2023-02-03T05:39:19;9.93;;;5.03;;
14892;SDS011;7538;53.626;9.906;2023-02-03T05:41:46;7.73;;;4.93;;
14892;SDS011;7538;53.626;9.906;2023-02-03T05:44:18;11.30;;;5.50;;
14892;SDS011;7538;53.626;9.906;2023-02-03T05:46:47;8.20;;;5.40;;
14892;SDS011;7538;53.626;9.906;2023-02-03T05:49:14;6.90;;;4.73;;
14892;SDS011;7538;53.626;9.906;2023-02-03T05:51:41;9.03;;;4.10;;
14892;SDS011;7538;53.626;9.906;2023-02-03T05:54:08;11.73;;;4.60;;
14892;SDS011;7538;53.626;9.906;2023-02-03T05:56:35;11.37;;;4.67;;
14892;SDS011;7538;53.626;9.906;2023-02-03T05:59:02;7.03;;;4.23;;
14892;SDS011;7538;53.626;9.906;2023-02-03T06:01:29;9.97;;;4.77;;
14892;SDS011;7538;53.626;9.906;2023-02-03T06:03:58;9.10;;;4.30;;
14892;SDS011;7538;53.626;9.906;2023-02-03T06:06:26;9.60;;;4.37;;
14892;SDS011;7538;53.626;9.906;2023-02-03T06:08:58;6.22;;;4.18;;
14892;SDS011;7538;53.626;9.906;2023-02-03T06:11:25;7.00;;;3.87;;
14892;SDS011;7538;53.626;9.906;2023-02-03T06:13:52;10.27;;;4.13;;
14892;SDS011;7538;53.626;9.906;2023-02-03T06:16:19;7.03;;;3.60;;
14892;SDS011;7538;53.626;9.906;2023-02-03T06:18:48;6.83;;;3.47;;
14892;SDS011;7538;53.626;9.906;2023-02-03T06:21:17;11.53;;;4.20;;
14892;SDS011;7538;53.626;9.906;2023-02-03T06:23:44;10.87;;;3.83;;
14892;SDS011;7538;53.626;9.906;2023-02-03T06:26:11;5.80;;;2.93;;
14892;SDS011;7538;53.626;9.906;2023-02-03T06:28:37;8.23;;;3.57;;
14892;SDS011;7538;53.626;9.906;2023-02-03T06:31:04;9.53;;;3.47;;
14892;SDS011;7538;53.626;9.906;2023-02-03T06:33:32;7.60;;;3.30;;
14892;SDS011;7538;53.626;9.906;2023-02-03T06:35:59;8.97;;;3.67;;
14892;SDS011;7538;53.626;9.906;2023-02-03T06:38:27;10.67;;;3.67;;
14892;SDS011;7538;53.626;9.906;2023-02-03T06:40:54;10.90;;;3.93;;
14892;SDS011;7538;53.626;9.906;2023-02-03T06:43:20;7.80;;;3.97;;
14892;SDS011;7538;53.626;9.906;2023-02-03T06:45:47;14.43;;;4.50;;
14892;SDS011;7538;53.626;9.906;2023-02-03T06:48:14;18.13;;;5.40;;
14892;SDS011;7538;53.626;9.906;2023-02-03T06:50:41;18.67;;;5.33;;
14892;SDS011;7538;53.626;9.906;2023-02-03T06:53:08;16.27;;;5.83;;
14892;SDS011;7538;53.626;9.906;2023-02-03T06:55:36;25.17;;;6.80;;
14892;SDS011;7538;53.626;9.906;2023-02-03T06:58:02;22.07;;;5.83;;
14892;SDS011;7538;53.626;9.906;2023-02-03T07:00:29;18.27;;;5.73;;
14892;SDS011;7538;53.626;9.906;2023-02-03T07:02:56;20.40;;;4.97;;
14892;SDS011;7538;53.626;9.906;2023-02-03T07:05:24;20.67;;;5.13;;
14892;SDS011;7538;53.626;9.906;2023-02-03T07:07:52;19.33;;;5.23;;
14892;SDS011;7538;53.626;9.906;2023-02-03T07:10:19;15.77;;;5.23;;
14892;SDS011;7538;53.626;9.906;2023-02-03T07:12:47;17.30;;;4.73;;
14892;SDS011;7538;53.626;9.906;2023-02-03T07:15:16;16.67;;;4.90;;
14892;SDS011;7538;53.626;9.906;2023-02-03T07:17:42;12.97;;;4.77;;
14892;SDS011;7538;53.626;9.906;2023-02-03T07:20:12;15.53;;;4.73;;
14892;SDS011;7538;53.626;9.906;2023-02-03T07:22:39;14.13;;;4.70;;
14892;SDS011;7538;53.626;9.906;2023-02-03T07:25:07;13.73;;;4.60;;
14892;SDS011;7538;53.626;9.906;2023-02-03T07:27:34;24.40;;;6.03;;
14892;SDS011;7538;53.626;9.906;2023-02-03T07:30:03;11.83;;;4.03;;
14892;SDS011;7538;53.626;9.906;2023-02-03T07:32:30;12.00;;;4.63;;
14892;SDS011;7538;53.626;9.906;2023-02-03T07:34:57;16.07;;;3.93;;
14892;SDS011;7538;53.626;9.906;2023-02-03T07:37:25;13.07;;;4.30;;
14892;SDS011;7538;53.626;9.906;2023-02-03T07:39:52;18.93;;;4.67;;
14892;SDS011;7538;53.626;9.906;2023-02-03T07:42:19;16.73;;;3.97;;
14892;SDS011;7538;53.626;9.906;2023-02-03T07:44:45;19.57;;;4.83;;
14892;SDS011;7538;53.626;9.906;2023-02-03T07:47:13;21.10;;;4.40;;
14892;SDS011;7538;53.626;9.906;2023-02-03T07:49:40;13.13;;;4.17;;
14892;SDS011;7538;53.626;9.906;2023-02-03T07:52:07;15.97;;;4.27;;
14892;SDS011;7538;53.626;9.906;2023-02-03T07:54:34;14.20;;;4.00;;
14892;SDS011;7538;53.626;9.906;2023-02-03T07:57:01;13.53;;;3.90;;
14892;SDS011;7538;53.626;9.906;2023-02-03T07:59:28;15.30;;;4.77;;
14892;SDS011;7538;53.626;9.906;2023-02-03T08:01:55;13.10;;;4.13;;
14892;SDS011;7538;53.626;9.906;2023-02-03T08:04:24;21.07;;;5.07;;
14892;SDS011;7538;53.626;9.906;2023-02-03T08:06:50;18.93;;;4.37;;
14892;SDS011;7538;53.626;9.906;2023-02-03T08:09:17;15.32;;;4.80;;
14892;SDS011;7538;53.626;9.906;2023-02-03T08:11:44;13.27;;;3.53;;
14892;SDS011;7538;53.626;9.906;2023-02-03T08:14:11;25.60;;;5.10;;
14892;SDS011;7538;53.626;9.906;2023-02-03T08:16:37;20.37;;;4.90;;
14892;SDS011;7538;53.626;9.906;2023-02-03T08:19:04;24.23;;;4.67;;
14892;SDS011;7538;53.626;9.906;2023-02-03T08:21:32;19.30;;;4.13;;
14892;SDS011;7538;53.626;9.906;2023-02-03T08:23:59;20.57;;;4.10;;
14892;SDS011;7538;53.626;9.906;2023-02-03T08:26:26;14.93;;;4.30;;
14892;SDS011;7538;53.626;9.906;2023-02-03T08:28:53;20.40;;;4.03;;
14892;SDS011;7538;53.626;9.906;2023-02-03T08:31:20;19.30;;;4.30;;
14892;SDS011;7538;53.626;9.906;2023-02-03T08:33:46;21.63;;;4.53;;
14892;SDS011;7538;53.626;9.906;2023-02-03T08:36:13;23.67;;;5.07;;
14892;SDS011;7538;53.626;9.906;2023-02-03T08:38:42;33.33;;;5.90;;
14892;SDS011;7538;53.626;9.906;2023-02-03T08:41:10;31.10;;;6.20;;
14892;SDS011;7538;53.626;9.906;2023-02-03T08:43:38;25.08;;;5.13;;
14892;SDS011;7538;53.626;9.906;2023-02-03T08:46:06;27.57;;;5.60;;
14892;SDS011;7538;53.626;9.906;2023-02-03T08:48:34;28.33;;;5.93;;
14892;SDS011;7538;53.626;9.906;2023-02-03T08:51:01;24.93;;;5.20;;
14892;SDS011;7538;53.626;9.906;2023-02-03T08:53:34;26.00;;;5.50;;
14892;SDS011;7538;53.626;9.906;2023-02-03T08:56:04;23.67;;;6.00;;
14892;SDS011;7538;53.626;9.906;2023-02-03T08:58:31;30.33;;;6.80;;
14892;SDS011;7538;53.626;9.906;2023-02-03T09:01:04;23.57;;;5.47;;
14892;SDS011;7538;53.626;9.906;2023-02-03T09:03:31;23.00;;;5.60;;
14892;SDS011;7538;53.626;9.906;2023-02-03T09:05:58;27.10;;;6.27;;
14892;SDS011;7538;53.626;9.906;2023-02-03T09:08:25;19.67;;;5.63;;
14892;SDS011;7538;53.626;9.906;2023-02-03T09:10:52;30.50;;;5.70;;
14892;SDS011;7538;53.626;9.906;2023-02-03T09:13:20;23.47;;;5.90;;
14892;SDS011;7538;53.626;9.906;2023-02-03T09:15:47;25.83;;;6.27;;
14892;SDS011;7538;53.626;9.906;2023-02-03T09:18:14;27.73;;;6.50;;
14892;SDS011;7538;53.626;9.906;2023-02-03T09:20:41;30.93;;;6.40;;
14892;SDS011;7538;53.626;9.906;2023-02-03T09:23:08;27.00;;;6.30;;
14892;SDS011;7538;53.626;9.906;2023-02-03T09:25:34;23.47;;;6.77;;
14892;SDS011;7538;53.626;9.906;2023-02-03T09:28:01;35.47;;;6.77;;
14892;SDS011;7538;53.626;9.906;2023-02-03T09:30:29;33.33;;;7.50;;
14892;SDS011;7538;53.626;9.906;2023-02-03T09:32:56;33.50;;;7.03;;
14892;SDS011;7538;53.626;9.906;2023-02-03T09:35:23;35.83;;;7.65;;
14892;SDS011;7538;53.626;9.906;2023-02-03T09:37:53;30.20;;;7.30;;
14892;SDS011;7538;53.626;9.906;2023-02-03T09:40:21;31.30;;;8.50;;
14892;SDS011;7538;53.626;9.906;2023-02-03T09:43:02;38.33;;;8.40;;
14892;SDS011;7538;53.626;9.906;2023-02-03T09:45:36;34.57;;;7.93;;
14892;SDS011;7538;53.626;9.906;2023-02-03T09:48:04;39.30;;;7.67;;
14892;SDS011;7538;53.626;9.906;2023-02-03T09:50:37;28.13;;;8.07;;
14892;SDS011;7538;53.626;9.906;2023-02-03T09:53:07;29.57;;;7.00;;
14892;SDS011;7538;53.626;9.906;2023-02-03T09:55:44;34.40;;;8.43;;
14892;SDS011;7538;53.626;9.906;2023-02-03T09:58:13;34.38;;;9.10;;
14892;SDS011;7538;53.626;9.906;2023-02-03T10:00:44;33.45;;;7.93;;
14892;SDS011;7538;53.626;9.906;2023-02-03T10:03:18;39.23;;;8.93;;
14892;SDS011;7538;53.626;9.906;2023-02-03T10:06:00;43.75;;;9.13;;
14892;SDS011;7538;53.626;9.906;2023-02-03T10:08:40;31.60;;;8.47;;
14892;SDS011;7538;53.626;9.906;2023-02-03T10:11:19;36.22;;;9.20;;
14892;SDS011;7538;53.626;9.906;2023-02-03T10:13:56;31.15;;;7.82;;
14892;SDS011;7538;53.626;9.906;2023-02-03T10:16:37;37.00;;;8.57;;
14892;SDS011;7538;53.626;9.906;2023-02-03T10:19:22;43.30;;;8.13;;
14892;SDS011;7538;53.626;9.906;2023-02-03T10:21:54;44.20;;;8.48;;
14892;SDS011;7538;53.626;9.906;2023-02-03T10:24:24;41.10;;;9.55;;
14892;SDS011;7538;53.626;9.906;2023-02-03T10:26:59;31.63;;;8.20;;
14892;SDS011;7538;53.626;9.906;2023-02-03T10:29:29;35.67;;;8.27;;
14892;SDS011;7538;53.626;9.906;2023-02-03T10:32:03;33.43;;;8.63;;
14892;SDS011;7538;53.626;9.906;2023-02-03T10:34:33;30.95;;;7.90;;
14892;SDS011;7538;53.626;9.906;2023-02-03T10:37:02;34.50;;;8.53;;
14892;SDS011;7538;53.626;9.906;2023-02-03T10:39:42;35.95;;;7.72;;
14892;SDS011;7538;53.626;9.906;2023-02-03T10:42:11;30.00;;;8.05;;
14892;SDS011;7538;53.626;9.906;2023-02-03T10:44:40;42.63;;;9.82;;
14892;SDS011;7538;53.626;9.906;2023-02-03T10:47:24;31.23;;;7.45;;
14892;SDS011;7538;53.626;9.906;2023-02-03T10:49:55;30.33;;;7.63;;
14892;SDS011;7538;53.626;9.906;2023-02-03T10:52:24;33.95;;;8.30;;
14892;SDS011;7538;53.626;9.906;2023-02-03T10:54:53;38.28;;;7.68;;
14892;SDS011;7538;53.626;9.906;2023-02-03T10:57:23;37.43;;;7.87;;
14892;SDS011;7538;53.626;9.906;2023-02-03T10:59:50;33.85;;;8.10;;
14892;SDS011;7538;53.626;9.906;2023-02-03T11:02:21;28.33;;;6.47;;
14892;SDS011;7538;53.626;9.906;2023-02-03T11:07:36;37.85;;;9.00;;
14892;SDS011;7538;53.626;9.906;2023-02-03T11:10:03;32.28;;;8.02;;
14892;SDS011;7538;53.626;9.906;2023-02-03T11:13:07;49.80;;;9.90;;
14892;SDS011;7538;53.626;9.906;2023-02-03T11:15:36;34.88;;;8.50;;
14892;SDS011;7538;53.626;9.906;2023-02-03T11:20:57;32.65;;;7.68;;
14892;SDS011;7538;53.626;9.906;2023-02-03T11:23:24;26.20;;;7.07;;
14892;SDS011;7538;53.626;9.906;2023-02-03T11:25:51;38.00;;;7.80;;
14892;SDS011;7538;53.626;9.906;2023-02-03T11:28:19;33.28;;;7.70;;
14892;SDS011;7538;53.626;9.906;2023-02-03T11:30:46;31.15;;;7.88;;
14892;SDS011;7538;53.626;9.906;2023-02-03T11:33:20;23.52;;;6.82;;
14892;SDS011;7538;53.626;9.906;2023-02-03T11:35:54;34.55;;;7.25;;
14892;SDS011;7538;53.626;9.906;2023-02-03T11:38:29;35.83;;;6.95;;
14892;SDS011;7538;53.626;9.906;2023-02-03T11:40:57;30.38;;;8.52;;
14892;SDS011;7538;53.626;9.906;2023-02-03T11:43:25;32.75;;;6.75;;
14892;SDS011;7538;53.626;9.906;2023-02-03T11:45:58;31.83;;;6.93;;
14892;SDS011;7538;53.626;9.906;2023-02-03T11:48:27;29.17;;;8.05;;
14892;SDS011;7538;53.626;9.906;2023-02-03T11:51:03;29.92;;;7.50;;
14892;SDS011;7538;53.626;9.906;2023-02-03T11:53:39;28.77;;;8.38;;
14892;SDS011;7538;53.626;9.906;2023-02-03T11:56:23;36.35;;;8.07;;
14892;SDS011;7538;53.626;9.906;2023-02-03T11:59:09;25.73;;;6.13;;
14892;SDS011;7538;53.626;9.906;2023-02-03T12:02:13;28.67;;;7.35;;
14892;SDS011;7538;53.626;9.906;2023-02-03T12:05:17;21.77;;;6.57;;
14892;SDS011;7538;53.626;9.906;2023-02-03T12:08:01;25.35;;;6.00;;
14892;SDS011;7538;53.626;9.906;2023-02-03T12:10:41;28.40;;;6.78;;
14892;SDS011;7538;53.626;9.906;2023-02-03T12:13:18;28.23;;;7.53;;
14892;SDS011;7538;53.626;9.906;2023-02-03T12:16:03;37.65;;;7.60;;
14892;SDS011;7538;53.626;9.906;2023-02-03T12:18:49;27.42;;;7.72;;
14892;SDS011;7538;53.626;9.906;2023-02-03T12:24:12;20.27;;;6.68;;
14892;SDS011;7538;53.626;9.906;2023-02-03T12:26:49;26.80;;;7.15;;
14892;SDS011;7538;53.626;9.906;2023-02-03T12:29:26;34.58;;;7.07;;
14892;SDS011;7538;53.626;9.906;2023-02-03T12:32:01;29.55;;;7.28;;
14892;SDS011;7538;53.626;9.906;2023-02-03T12:34:32;28.95;;;7.22;;
14892;SDS011;7538;53.626;9.906;2023-02-03T12:37:04;30.98;;;7.28;;
14892;SDS011;7538;53.626;9.906;2023-02-03T12:39:37;35.00;;;7.27;;
14892;SDS011;7538;53.626;9.906;2023-02-03T12:42:11;24.73;;;6.20;;
14892;SDS011;7538;53.626;9.906;2023-02-03T12:44:44;27.70;;;7.00;;
14892;SDS011;7538;53.626;9.906;2023-02-03T12:47:15;32.65;;;6.63;;
14892;SDS011;7538;53.626;9.906;2023-02-03T12:49:49;25.83;;;6.30;;
14892;SDS011;7538;53.626;9.906;2023-02-03T12:52:20;31.50;;;6.82;;
14892;SDS011;7538;53.626;9.906;2023-02-03T12:54:55;33.72;;;7.28;;
14892;SDS011;7538;53.626;9.906;2023-02-03T12:57:29;27.38;;;6.18;;
14892;SDS011;7538;53.626;9.906;2023-02-03T13:00:08;29.03;;;7.03;;
14892;SDS011;7538;53.626;9.906;2023-02-03T13:03:04;27.37;;;7.33;;
14892;SDS011;7538;53.626;9.906;2023-02-03T13:05:38;32.80;;;7.43;;
14892;SDS011;7538;53.626;9.906;2023-02-03T13:08:11;69.37;;;19.13;;
14892;SDS011;7538;53.626;9.906;2023-02-03T13:10:45;34.30;;;6.97;;
14892;SDS011;7538;53.626;9.906;2023-02-03T13:13:16;32.10;;;7.57;;
14892;SDS011;7538;53.626;9.906;2023-02-03T13:15:48;25.53;;;5.60;;
14892;SDS011;7538;53.626;9.906;2023-02-03T13:18:19;27.40;;;5.57;;
14892;SDS011;7538;53.626;9.906;2023-02-03T13:20:52;24.63;;;5.70;;
14892;SDS011;7538;53.626;9.906;2023-02-03T13:23:19;22.83;;;5.87;;
14892;SDS011;7538;53.626;9.906;2023-02-03T13:28:40;24.37;;;6.27;;
14892;SDS011;7538;53.626;9.906;2023-02-03T13:31:22;28.90;;;6.67;;
14892;SDS011;7538;53.626;9.906;2023-02-03T13:34:02;28.13;;;7.20;;
14892;SDS011;7538;53.626;9.906;2023-02-03T13:39:51;22.45;;;5.85;;
14892;SDS011;7538;53.626;9.906;2023-02-03T13:42:27;33.30;;;7.20;;
14892;SDS011;7538;53.626;9.906;2023-02-03T13:44:57;31.83;;;6.50;;
14892;SDS011;7538;53.626;9.906;2023-02-03T13:47:33;24.03;;;6.17;;
14892;SDS011;7538;53.626;9.906;2023-02-03T13:50:00;29.77;;;7.47;;
14892;SDS011;7538;53.626;9.906;2023-02-03T13:52:33;26.05;;;6.50;;
14892;SDS011;7538;53.626;9.906;2023-02-03T13:55:03;32.20;;;6.47;;
14892;SDS011;7538;53.626;9.906;2023-02-03T13:57:33;29.35;;;6.32;;
14892;SDS011;7538;53.626;9.906;2023-02-03T14:00:03;30.37;;;5.97;;
14892;SDS011;7538;53.626;9.906;2023-02-03T14:02:42;27.70;;;6.70;;
14892;SDS011;7538;53.626;9.906;2023-02-03T14:17:06;23.88;;;5.85;;
14892;SDS011;7538;53.626;9.906;2023-02-03T14:23:06;33.57;;;7.00;;
14892;SDS011;7538;53.626;9.906;2023-02-03T14:25:39;22.13;;;6.23;;
14892;SDS011;7538;53.626;9.906;2023-02-03T14:28:08;31.70;;;6.63;;
14892;SDS011;7538;53.626;9.906;2023-02-03T14:36:42;28.80;;;5.80;;
14892;SDS011;7538;53.626;9.906;2023-02-03T14:39:27;27.13;;;7.13;;
14892;SDS011;7538;53.626;9.906;2023-02-03T14:42:07;29.00;;;6.18;;
14892;SDS011;7538;53.626;9.906;2023-02-03T14:44:42;24.93;;;6.73;;
14892;SDS011;7538;53.626;9.906;2023-02-03T14:47:21;35.87;;;6.73;;
14892;SDS011;7538;53.626;9.906;2023-02-03T14:50:03;27.00;;;6.53;;
14892;SDS011;7538;53.626;9.906;2023-02-03T14:52:46;30.47;;;7.40;;
14892;SDS011;7538;53.626;9.906;2023-02-03T14:55:30;32.50;;;6.87;;
14892;SDS011;7538;53.626;9.906;2023-02-03T14:58:05;25.47;;;6.40;;
14892;SDS011;7538;53.626;9.906;2023-02-03T15:00:41;30.38;;;6.88;;
14892;SDS011;7538;53.626;9.906;2023-02-03T15:03:16;32.60;;;8.13;;
14892;SDS011;7538;53.626;9.906;2023-02-03T15:05:48;29.47;;;7.33;;
14892;SDS011;7538;53.626;9.906;2023-02-03T15:14:17;31.20;;;6.70;;
14892;SDS011;7538;53.626;9.906;2023-02-03T15:16:47;28.27;;;6.80;;
14892;SDS011;7538;53.626;9.906;2023-02-03T15:19:19;34.53;;;6.80;;
14892;SDS011;7538;53.626;9.906;2023-02-03T15:21:49;36.73;;;6.47;;
14892;SDS011;7538;53.626;9.906;2023-02-03T15:24:17;24.53;;;7.17;;
14892;SDS011;7538;53.626;9.906;2023-02-03T15:26:47;35.00;;;7.07;;
14892;SDS011;7538;53.626;9.906;2023-02-03T15:29:22;25.53;;;6.50;;
14892;SDS011;7538;53.626;9.906;2023-02-03T15:31:55;33.83;;;8.23;;
14892;SDS011;7538;53.626;9.906;2023-02-03T15:34:29;31.97;;;7.30;;
14892;SDS011;7538;53.626;9.906;2023-02-03T15:37:02;32.50;;;8.13;;
14892;SDS011;7538;53.626;9.906;2023-02-03T15:39:36;25.30;;;7.20;;
14892;SDS011;7538;53.626;9.906;2023-02-03T15:42:12;35.87;;;7.70;;
14892;SDS011;7538;53.626;9.906;2023-02-03T15:44:45;33.47;;;8.23;;
14892;SDS011;7538;53.626;9.906;2023-02-03T15:47:18;28.33;;;7.03;;
14892;SDS011;7538;53.626;9.906;2023-02-03T15:49:52;28.10;;;7.10;;
14892;SDS011;7538;53.626;9.906;2023-02-03T15:52:27;32.43;;;7.27;;
14892;SDS011;7538;53.626;9.906;2023-02-03T15:54:59;32.07;;;7.17;;
14892;SDS011;7538;53.626;9.906;2023-02-03T15:57:32;28.33;;;6.87;;